Time;durP1;ratioP1;P1;durP2;ratioP2;P2;SDS_P1;SDS_P2;PMS_P1;PMS_P2;Temp;Humidity;BMP_temperature;BMP_pressure;BME280_temperature;BME280_humidity;BME280_pressure;Samples;Min_cycle;Max_cycle;Signal;HPM_P1;HPM_P2
2022/05/21 00:00:22;;;;;;;8.63;7.30;;;;;;;18.87;82.29;99846.47;6272540;22;20447;-78
2022/05/21 00:02:48;;;;;;;10.63;7.75;;;;;;;18.83;82.95;99843.13;6274301;22;20008;-78
2022/05/21 00:05:15;;;;;;;10.07;8.23;;;;;;;18.76;83.29;99835.16;6248078;22;20018;-89
2022/05/21 00:07:42;;;;;;;10.48;7.93;;;;;;;18.64;84.23;99829.44;6247728;22;20387;-88
2022/05/21 00:10:08;;;;;;;17.00;8.50;;;;;;;18.66;84.72;99836.59;6274319;22;20008;-89
2022/05/21 00:12:34;;;;;;;8.85;7.43;;;;;;;18.58;85.17;99836.28;6272742;22;20053;-89
2022/05/21 00:15:00;;;;;;;8.80;7.90;;;;;;;18.34;86.40;99819.69;6274049;22;20379;-88
2022/05/21 00:17:26;;;;;;;10.27;7.93;;;;;;;18.34;86.17;99814.06;6273605;22;20012;-89
2022/05/21 00:19:51;;;;;;;9.45;7.80;;;;;;;18.25;87.69;99808.59;6247580;22;20007;-90
2022/05/21 00:22:17;;;;;;;8.55;7.75;;;;;;;18.14;88.64;99797.28;6274671;22;20023;-79
2022/05/21 00:24:42;;;;;;;8.82;7.93;;;;;;;18.02;88.69;99784.38;6247575;22;20015;-79
2022/05/21 00:27:08;;;;;;;10.15;8.13;;;;;;;18.04;88.38;99799.44;6273440;22;20137;-78
2022/05/21 00:29:34;;;;;;;9.75;7.65;;;;;;;18.07;88.79;99798.47;6274451;22;20015;-79
2022/05/21 00:32:00;;;;;;;9.52;7.82;;;;;;;18.06;88.89;99801.78;6274441;22;19999;-79
2022/05/21 00:34:26;;;;;;;10.85;7.72;;;;;;;17.99;88.49;99791.75;6274603;22;20229;-79
2022/05/21 00:36:52;;;;;;;8.57;7.55;;;;;;;18.03;88.42;99802.78;6274303;22;20088;-79
2022/05/21 00:39:17;;;;;;;10.55;7.53;;;;;;;18.05;89.46;99828.28;6245066;22;20399;-79
2022/05/21 00:41:43;;;;;;;8.70;7.70;;;;;;;18.07;89.79;99843.41;6273695;22;20362;-79
2022/05/21 00:44:09;;;;;;;10.70;8.77;;;;;;;18.00;89.70;99849.41;6273000;22;20498;-79
2022/05/21 00:46:42;;;;;;;10.73;9.10;;;;;;;17.88;90.68;99864.56;6273622;22;20004;-79
2022/05/21 00:49:15;;;;;;;11.05;9.13;;;;;;;17.75;92.15;99911.09;6273068;22;20015;-79
2022/05/21 00:52:04;;;;;;;9.90;8.95;;;;;;;17.51;93.89;99926.00;6247352;22;20012;-79
2022/05/21 00:54:45;;;;;;;9.38;8.48;;;;;;;17.40;93.35;99892.19;6274383;22;20624;-79
2022/05/21 00:57:25;;;;;;;10.00;8.98;;;;;;;17.42;93.94;99900.13;6246035;22;20011;-79
2022/05/21 00:59:56;;;;;;;9.48;8.48;;;;;;;17.50;92.89;99899.25;6246987;22;20022;-79
2022/05/21 01:02:32;;;;;;;9.52;8.63;;;;;;;17.42;93.56;99884.09;6252338;22;20019;-80
2022/05/21 01:04:59;;;;;;;9.25;8.18;;;;;;;17.39;93.76;99871.00;6273883;22;20083;-80
2022/05/21 01:07:25;;;;;;;11.23;8.43;;;;;;;17.42;93.65;99867.25;6274235;22;20011;-80
2022/05/21 01:09:53;;;;;;;9.77;8.48;;;;;;;17.50;93.59;99851.56;6274830;22;20535;-79
2022/05/21 01:12:25;;;;;;;10.43;8.35;;;;;;;17.49;92.38;99833.19;6247313;22;20343;-80
2022/05/21 01:14:52;;;;;;;9.10;8.18;;;;;;;17.67;92.46;99863.03;6247310;22;20039;-80
2022/05/21 01:17:20;;;;;;;9.30;8.30;;;;;;;17.71;93.09;99872.03;6246338;22;20022;-80
2022/05/21 01:19:55;;;;;;;12.68;8.18;;;;;;;17.66;92.94;99875.53;6247227;22;20425;-90
2022/05/21 01:22:28;;;;;;;8.23;7.05;;;;;;;17.73;93.22;99877.91;6247169;22;20010;-90
2022/05/21 01:24:54;;;;;;;10.20;8.10;;;;;;;17.76;92.94;99890.16;6247697;22;20070;-89
2022/05/21 01:27:19;;;;;;;8.90;8.00;;;;;;;17.71;93.29;99889.59;6246973;22;20007;-89
2022/05/21 01:29:46;;;;;;;8.57;7.65;;;;;;;17.69;94.32;99892.13;6271676;22;20011;-89
2022/05/21 01:32:16;;;;;;;10.48;7.55;;;;;;;17.62;93.99;99895.38;6245503;22;20063;-90
2022/05/21 01:34:42;;;;;;;8.68;7.80;;;;;;;17.66;93.13;99897.97;6220812;22;20034;-90
2022/05/21 01:37:07;;;;;;;8.30;7.50;;;;;;;17.69;92.18;99920.19;6247798;22;20489;-90
2022/05/21 01:39:33;;;;;;;8.75;7.78;;;;;;;17.73;91.73;99913.59;6274087;22;20012;-89
2022/05/21 01:41:58;;;;;;;8.65;7.75;;;;;;;17.84;90.38;99924.97;6273803;22;19999;-89
2022/05/21 01:44:39;;;;;;;8.32;7.57;;;;;;;17.91;90.67;99924.56;6247410;22;20456;-90
2022/05/21 01:47:12;;;;;;;8.68;7.45;;;;;;;17.98;89.34;99933.34;6272467;22;20503;-89
2022/05/21 01:49:38;;;;;;;;;;;;;;;18.07;88.38;99929.63;6274517;22;20012;-90
2022/05/21 01:52:05;;;;;;;9.35;6.95;;;;;;;18.16;87.04;99937.88;6274304;22;19911;-89
2022/05/21 01:54:31;;;;;;;9.82;7.10;;;;;;;18.29;85.85;99937.53;6221365;22;20354;-89
2022/05/21 01:56:59;;;;;;;9.27;6.88;;;;;;;18.53;82.09;99941.69;6273345;22;20019;-88
2022/05/21 01:59:25;;;;;;;8.05;6.38;;;;;;;18.78;80.37;99933.75;6273208;22;19999;-89
2022/05/21 02:01:51;;;;;;;8.75;6.70;;;;;;;18.93;79.10;99942.84;6273228;22;20014;-89
2022/05/21 02:04:17;;;;;;;7.68;6.35;;;;;;;19.05;78.37;99936.06;6274866;22;20015;-91
2022/05/21 02:06:43;;;;;;;8.30;6.30;;;;;;;19.13;77.72;99925.16;6273988;22;20015;-90
2022/05/21 02:09:10;;;;;;;8.98;6.82;;;;;;;19.25;77.55;99938.78;6272412;22;20094;-90
2022/05/21 02:11:36;;;;;;;11.32;6.60;;;;;;;19.34;76.51;99938.59;6273765;22;20070;-90
2022/05/21 02:14:03;;;;;;;7.80;6.50;;;;;;;19.51;75.60;99939.53;6273648;22;20306;-90
2022/05/21 02:16:28;;;;;;;7.35;6.20;;;;;;;19.65;75.18;99931.44;6246968;22;20011;-91
2022/05/21 02:18:54;;;;;;;8.93;6.22;;;;;;;19.76;74.57;99937.91;6273173;22;20310;-89
2022/05/21 02:21:20;;;;;;;10.30;6.60;;;;;;;19.86;74.20;99930.03;6246334;22;20026;-90
2022/05/21 02:23:46;;;;;;;8.05;6.40;;;;;;;19.94;74.43;99931.09;6273248;22;20012;-89
2022/05/21 02:26:13;;;;;;;12.30;6.93;;;;;;;19.99;74.66;99927.53;6273887;22;20011;-89
2022/05/21 02:28:38;;;;;;;9.65;6.57;;;;;;;20.02;74.82;99912.44;6272882;22;20008;-90
2022/05/21 02:31:04;;;;;;;8.80;6.63;;;;;;;20.14;75.35;99916.09;6272167;22;20073;-89
2022/05/21 02:33:30;;;;;;;10.02;6.60;;;;;;;20.16;75.66;99891.78;6272734;22;20004;-89
2022/05/21 02:35:56;;;;;;;9.77;6.88;;;;;;;20.16;75.92;99888.97;6273439;22;20452;-89
2022/05/21 02:41:10;;;;;;;7.40;6.50;;;;;;;20.14;76.72;99871.78;6273018;22;20029;-89
2022/05/21 02:43:36;;;;;;;9.43;7.10;;;;;;;20.28;76.89;99890.53;6273013;22;20011;-87
2022/05/21 02:46:02;;;;;;;8.82;6.38;;;;;;;20.38;76.38;99883.41;6246592;22;20006;-90
2022/05/21 02:48:29;;;;;;;12.15;7.15;;;;;;;20.42;76.21;99874.75;6271960;22;20016;-89
2022/05/21 02:50:55;;;;;;;10.65;6.45;;;;;;;20.45;75.68;99871.66;6272571;22;20027;-89
2022/05/21 02:53:21;;;;;;;10.27;6.55;;;;;;;20.44;75.83;99856.03;6245922;22;20506;-89
2022/05/21 02:55:47;;;;;;;7.45;6.10;;;;;;;20.50;76.06;99858.09;6273790;22;20030;-90
2022/05/21 02:58:13;;;;;;;6.85;6.13;;;;;;;20.48;75.85;99850.94;6246428;22;20007;-89
2022/05/21 03:00:38;;;;;;;8.77;5.82;;;;;;;20.54;75.80;99841.72;6245654;22;20310;-89
2022/05/21 03:03:04;;;;;;;8.98;6.22;;;;;;;20.60;75.76;99839.66;6272981;22;20015;-89
2022/05/21 03:05:31;;;;;;;8.32;6.28;;;;;;;20.56;75.79;99823.00;6273553;22;20046;-88
2022/05/21 03:07:56;;;;;;;8.13;6.10;;;;;;;20.56;75.97;99811.75;6245919;22;20611;-89
2022/05/21 03:10:25;;;;;;;10.40;6.25;;;;;;;20.58;76.02;99819.69;6273947;22;20003;-89
2022/05/21 03:12:53;;;;;;;11.52;6.38;;;;;;;20.53;75.71;99806.34;6246618;22;20003;-89
2022/05/21 03:15:21;;;;;;;8.05;5.80;;;;;;;20.51;75.96;99787.13;6274183;22;20016;-89
2022/05/21 03:17:47;;;;;;;6.88;6.18;;;;;;;20.55;75.93;99786.88;6248301;22;20015;-90
2022/05/21 03:20:14;;;;;;;9.13;5.88;;;;;;;20.47;75.87;99773.31;6249362;22;20012;-89
2022/05/21 03:22:40;;;;;;;7.53;5.50;;;;;;;20.45;75.84;99770.25;6248736;22;20008;-89
2022/05/21 03:25:07;;;;;;;6.82;6.20;;;;;;;20.46;75.76;99763.31;6276090;22;20014;-89
2022/05/21 03:27:33;;;;;;;9.55;5.93;;;;;;;20.50;75.81;99767.94;6276146;22;20099;-89
2022/05/21 03:29:58;;;;;;;6.85;5.30;;;;;;;20.48;75.62;99760.00;6274986;22;20437;-88
2022/05/21 03:32:24;;;;;;;6.07;5.28;;;;;;;20.46;75.55;99740.78;6274601;22;20018;-89
2022/05/21 03:34:49;;;;;;;14.82;6.20;;;;;;;20.47;75.54;99747.94;6274899;22;20006;-88
2022/05/21 03:37:15;;;;;;;7.88;5.47;;;;;;;20.41;76.21;99749.25;6274950;22;20023;-89
2022/05/21 03:39:40;;;;;;;7.63;5.68;;;;;;;20.42;75.73;99751.53;6274384;22;20354;-89
2022/05/21 03:42:06;;;;;;;8.13;5.40;;;;;;;20.39;76.04;99763.81;6274346;22;20430;-89
2022/05/21 03:44:32;;;;;;;9.60;5.22;;;;;;;20.40;76.12;99765.38;6273746;22;20020;-89
2022/05/21 03:46:58;;;;;;;10.55;5.78;;;;;;;20.41;76.56;99766.16;6274517;22;20011;-89
2022/05/21 03:49:25;;;;;;;8.10;5.10;;;;;;;20.37;76.05;99760.75;6248384;22;20016;-89
2022/05/21 03:51:50;;;;;;;7.55;5.60;;;;;;;20.43;76.21;99781.25;6275206;22;20007;-87
2022/05/21 03:54:16;;;;;;;9.65;6.47;;;;;;;20.42;76.11;99779.69;6247068;22;20057;-86
2022/05/21 03:56:41;;;;;;;10.07;5.40;;;;;;;20.51;76.10;99809.69;6247773;22;20149;-87
2022/05/21 03:59:07;;;;;;;7.38;5.95;;;;;;;20.52;76.60;99827.34;6242701;22;20341;-89
2022/05/21 04:01:32;;;;;;;7.43;6.28;;;;;;;20.48;76.68;99847.34;6273206;22;20016;-89
2022/05/21 04:03:58;;;;;;;8.73;6.15;;;;;;;20.45;77.20;99837.09;6274268;22;20492;-88
2022/05/21 04:06:23;;;;;;;8.88;6.18;;;;;;;20.42;77.13;99847.31;6271688;22;20090;-88
2022/05/21 04:08:49;;;;;;;6.93;5.93;;;;;;;20.33;78.65;99866.53;6246046;22;20004;-88
2022/05/21 04:11:15;;;;;;;9.45;6.53;;;;;;;20.31;77.58;99847.28;6248283;22;20016;-88
2022/05/21 04:13:41;;;;;;;9.55;6.50;;;;;;;20.39;77.77;99859.59;6246490;22;20079;-89
2022/05/21 04:16:07;;;;;;;8.27;6.22;;;;;;;20.37;78.40;99861.41;6273003;22;20039;-89
2022/05/21 04:18:32;;;;;;;7.28;6.55;;;;;;;20.31;78.54;99881.09;6274227;22;20173;-89
2022/05/21 04:20:58;;;;;;;9.35;6.28;;;;;;;20.23;79.79;99904.59;6274128;22;20011;-89
2022/05/21 04:23:23;;;;;;;6.85;6.15;;;;;;;20.17;79.79;99895.38;6274892;22;20018;-88
2022/05/21 04:25:49;;;;;;;9.40;6.10;;;;;;;20.15;80.69;99893.06;6274995;22;20034;-89
2022/05/21 04:28:14;;;;;;;10.23;6.65;;;;;;;20.13;80.74;99897.66;6274219;22;20636;-88
2022/05/21 04:30:40;;;;;;;8.48;6.30;;;;;;;20.06;81.88;99898.91;6275016;22;20019;-88
2022/05/21 04:33:05;;;;;;;9.27;6.57;;;;;;;20.08;83.03;99902.00;6274599;22;20012;-88
2022/05/21 04:38:15;;;;;;;10.48;6.93;;;;;;;20.12;83.53;99967.28;6274535;22;20018;-88
2022/05/21 04:40:42;;;;;;;9.25;6.72;;;;;;;20.13;83.23;99985.72;6247321;22;20007;-89
2022/05/21 04:43:08;;;;;;;11.35;7.00;;;;;;;20.06;83.87;100005.88;6272268;22;20031;-88
2022/05/21 04:45:34;;;;;;;9.02;7.07;;;;;;;20.00;84.06;100007.91;6274851;22;20085;-88
2022/05/21 04:48:07;;;;;;;9.50;6.65;;;;;;;20.01;84.14;100015.09;6245405;22;20023;-87
2022/05/21 04:50:35;;;;;;;9.95;6.55;;;;;;;20.08;83.89;100017.44;6242562;22;20011;-88
2022/05/21 04:53:00;;;;;;;10.85;7.40;;;;;;;20.16;84.00;100032.59;6245554;22;20061;-89
2022/05/21 04:55:26;;;;;;;9.88;7.10;;;;;;;20.18;83.53;100044.09;6275009;22;19999;-90
2022/05/21 04:57:51;;;;;;;9.23;7.45;;;;;;;20.27;83.16;100051.59;6247744;22;20326;-86
2022/05/21 05:00:20;;;;;;;11.45;6.95;;;;;;;20.31;83.66;100071.88;6274995;22;20437;-87
2022/05/21 05:02:46;;;;;;;11.48;7.13;;;;;;;20.34;83.35;100074.44;6272743;22;20016;-85
2022/05/21 05:05:13;;;;;;;9.57;7.28;;;;;;;20.38;83.03;100089.06;6271539;22;20378;-87
2022/05/21 05:07:39;;;;;;;9.07;6.30;;;;;;;20.40;81.83;100080.91;6246499;22;20025;-84
2022/05/21 05:10:05;;;;;;;9.70;6.93;;;;;;;20.57;81.66;100097.13;6273156;22;20598;-80
2022/05/21 05:12:34;;;;;;;8.55;6.35;;;;;;;20.74;80.41;100103.63;6246353;22;20094;-80
2022/05/21 05:15:00;;;;;;;7.38;6.13;;;;;;;20.91;79.36;100101.63;6273097;22;20000;-80
2022/05/21 05:17:27;;;;;;;7.13;6.10;;;;;;;21.08;78.95;100113.75;6273075;22;20022;-80
2022/05/21 05:19:54;;;;;;;7.20;5.55;;;;;;;21.27;78.00;100109.19;6272339;22;20035;-79
2022/05/21 05:22:23;;;;;;;8.77;5.65;;;;;;;21.38;76.97;100120.53;6272384;22;20023;-80
2022/05/21 05:24:49;;;;;;;7.53;5.45;;;;;;;21.45;76.81;100115.66;6271862;22;20003;-80
2022/05/21 05:27:16;;;;;;;8.85;6.13;;;;;;;21.46;76.36;100123.63;6271993;22;20353;-80
2022/05/21 05:29:42;;;;;;;9.32;6.03;;;;;;;21.49;76.35;100110.53;6272722;22;20000;-79
2022/05/21 05:32:08;;;;;;;8.40;5.80;;;;;;;21.59;75.90;100117.50;6272085;22;20098;-79
2022/05/21 05:34:34;;;;;;;14.02;6.43;;;;;;;21.63;76.62;100120.84;6245341;22;20008;-79
2022/05/21 05:37:01;;;;;;;10.73;6.22;;;;;;;21.64;75.44;100113.88;6270603;22;20035;-79
2022/05/21 05:39:26;;;;;;;10.20;5.57;;;;;;;21.57;76.35;100108.75;6245375;22;20077;-79
2022/05/21 05:41:52;;;;;;;10.73;5.13;;;;;;;21.62;76.60;100108.78;6271452;22;20460;-80
2022/05/21 05:44:19;;;;;;;9.43;5.60;;;;;;;21.68;76.32;100105.94;6272842;22;20404;-79
2022/05/21 05:46:45;;;;;;;6.85;5.57;;;;;;;21.71;76.98;100108.53;6272254;22;20224;-79
2022/05/21 05:49:10;;;;;;;8.52;5.90;;;;;;;21.70;76.74;100097.75;6271719;22;20403;-79
2022/05/21 05:51:36;;;;;;;6.55;5.47;;;;;;;21.71;76.71;100100.06;6272725;22;20536;-79
2022/05/21 05:54:01;;;;;;;12.32;5.55;;;;;;;21.83;76.64;100123.41;6270808;22;20084;-79
2022/05/21 05:56:27;;;;;;;8.20;5.97;;;;;;;21.84;75.75;100122.13;6245526;22;20452;-78
2022/05/21 06:01:37;;;;;;;10.77;5.93;;;;;;;21.90;76.62;100114.44;6272687;22;20345;-78
2022/05/21 06:04:03;;;;;;;11.40;5.85;;;;;;;21.97;76.04;100118.81;6209345;23;20044;-80
2022/05/21 06:06:30;;;;;;;10.00;5.55;;;;;;;22.02;76.36;100129.34;6210688;23;20019;-86
2022/05/21 06:08:55;;;;;;;8.02;5.53;;;;;;;22.01;76.42;100128.56;6210442;23;20024;-86
2022/05/21 06:11:21;;;;;;;9.00;5.70;;;;;;;22.07;75.48;100142.69;6211924;23;20069;-87
2022/05/21 06:13:47;;;;;;;8.75;5.68;;;;;;;21.98;74.83;100129.59;6209562;23;20004;-87
2022/05/21 06:16:14;;;;;;;7.72;5.63;;;;;;;22.02;75.28;100132.94;6209469;23;20013;-86
2022/05/21 06:18:39;;;;;;;8.73;5.57;;;;;;;22.06;74.84;100127.81;6181377;23;20017;-86
2022/05/21 06:21:06;;;;;;;7.65;5.60;;;;;;;22.18;75.70;100120.88;6206836;23;20323;-87
2022/05/21 06:23:32;;;;;;;7.22;5.75;;;;;;;22.25;74.19;100119.56;6208664;23;20008;-87
2022/05/21 06:25:59;;;;;;;8.27;5.40;;;;;;;22.22;74.28;100103.66;6208178;23;20024;-78
2022/05/21 06:28:25;;;;;;;7.78;5.80;;;;;;;22.25;74.50;100103.38;6210113;23;20012;-79
2022/05/21 06:30:51;;;;;;;8.13;5.30;;;;;;;22.32;74.33;100114.16;6206326;23;20078;-79
2022/05/21 06:33:17;;;;;;;9.73;5.00;;;;;;;22.35;73.68;100111.59;6208270;23;20079;-79
2022/05/21 06:35:47;;;;;;;17.83;5.88;;;;;;;22.29;73.25;100106.72;6207757;23;20024;-79
2022/05/21 06:38:12;;;;;;;8.05;5.10;;;;;;;22.20;74.00;100077.97;6209089;23;20075;-79
2022/05/21 06:40:38;;;;;;;9.95;4.72;;;;;;;22.36;73.12;100101.84;6209207;23;20132;-79
2022/05/21 06:43:03;;;;;;;9.43;4.82;;;;;;;22.36;72.08;100096.19;6207509;23;20453;-79
2022/05/21 06:45:31;;;;;;;7.88;4.38;;;;;;;22.35;72.42;100100.28;6208053;23;20020;-78
2022/05/21 06:48:09;;;;;;;10.32;4.93;;;;;;;22.50;73.37;100123.38;6210086;23;20062;-78
2022/05/21 06:50:37;;;;;;;6.35;4.85;;;;;;;22.56;72.29;100115.66;6208803;23;20009;-78
2022/05/21 06:53:04;;;;;;;7.82;4.68;;;;;;;22.65;72.21;100118.97;6208549;23;20283;-78
2022/05/21 06:55:30;;;;;;;6.97;4.63;;;;;;;22.74;71.40;100109.44;6210939;23;20001;-79
2022/05/21 06:57:56;;;;;;;10.85;4.97;;;;;;;22.77;72.02;100125.38;6208922;23;20335;-79
2022/05/21 07:00:23;;;;;;;10.15;5.03;;;;;;;22.91;72.00;100123.53;6210822;23;20020;-79
2022/05/21 07:02:50;;;;;;;6.63;4.70;;;;;;;23.07;70.37;100126.28;6239920;22;20015;-78
2022/05/21 07:08:01;;;;;;;9.23;4.13;;;;;;;23.82;65.94;100132.53;6272409;22;20114;-78
2022/05/21 07:10:29;;;;;;;10.88;4.50;;;;;;;24.04;64.69;100142.94;6272536;22;20031;-78
2022/05/21 07:12:55;;;;;;;15.98;5.07;;;;;;;23.97;63.88;100152.78;6272465;22;20453;-78
2022/05/21 07:15:21;;;;;;;9.25;4.00;;;;;;;23.89;64.15;100157.50;6272524;22;20334;-78
2022/05/21 07:17:47;;;;;;;7.03;4.03;;;;;;;23.73;64.52;100168.94;6272763;22;20014;-79
2022/05/21 07:20:16;;;;;;;6.15;4.47;;;;;;;23.40;66.54;100175.53;6271804;22;20073;-78
2022/05/21 07:22:43;;;;;;;5.90;4.20;;;;;;;23.28;67.91;100168.38;6272682;22;20015;-79
2022/05/21 07:25:11;;;;;;;8.65;4.80;;;;;;;23.11;70.58;100159.97;6245575;22;20022;-79
2022/05/21 07:27:36;;;;;;;8.82;4.65;;;;;;;22.96;71.72;100160.28;6272650;22;20016;-79
2022/05/21 07:30:03;;;;;;;7.80;5.57;;;;;;;22.77;73.30;100167.78;6272208;22;20065;-78
2022/05/21 07:32:29;;;;;;;8.57;4.93;;;;;;;22.56;75.60;100156.00;6272777;22;20000;-78
2022/05/21 07:34:59;;;;;;;7.43;5.20;;;;;;;22.58;76.57;100158.31;6273253;22;20011;-78
2022/05/21 07:37:25;;;;;;;8.73;4.35;;;;;;;22.41;75.73;100154.72;6273883;22;20012;-79
2022/05/21 07:39:51;;;;;;;8.60;4.80;;;;;;;22.24;78.23;100151.94;6273902;22;20434;-78
2022/05/21 07:42:17;;;;;;;9.55;4.93;;;;;;;22.09;78.37;100146.53;6273060;22;20015;-85
2022/05/21 07:44:42;;;;;;;7.18;4.85;;;;;;;22.02;77.90;100144.25;6272466;22;20515;-86
2022/05/21 07:47:08;;;;;;;6.97;5.20;;;;;;;22.06;78.21;100130.63;6272287;22;20019;-84
2022/05/21 07:49:34;;;;;;;8.32;5.07;;;;;;;22.16;79.94;100125.50;6272756;22;20393;-84
2022/05/21 07:51:59;;;;;;;10.55;5.28;;;;;;;22.08;79.98;100122.41;6245697;22;20069;-85
2022/05/21 07:54:26;;;;;;;8.65;5.20;;;;;;;22.20;79.67;100132.41;6246120;22;20322;-85
2022/05/21 07:56:52;;;;;;;7.13;4.68;;;;;;;22.23;77.10;100120.09;6246323;22;20493;-84
2022/05/21 07:59:18;;;;;;;6.50;4.60;;;;;;;22.22;76.80;100110.06;6245904;22;20075;-78
2022/05/21 08:01:43;;;;;;;7.38;4.80;;;;;;;22.24;76.45;100107.47;6274434;22;20018;-77
2022/05/21 08:04:09;;;;;;;5.55;4.25;;;;;;;22.15;76.31;100110.59;6274272;22;20041;-78
2022/05/21 08:06:35;;;;;;;6.78;4.18;;;;;;;22.17;76.16;100105.19;6273167;22;20007;-78
2022/05/21 08:09:01;;;;;;;6.50;4.50;;;;;;;22.20;75.31;100092.09;6272614;22;20087;-78
2022/05/21 08:11:27;;;;;;;6.55;4.78;;;;;;;22.30;75.56;100091.31;6274115;22;20380;-78
2022/05/21 08:13:53;;;;;;;12.00;4.90;;;;;;;22.29;76.62;100084.09;6273668;22;20061;-78
2022/05/21 08:16:19;;;;;;;11.40;5.10;;;;;;;22.36;73.78;100073.56;6246506;22;20016;-78
2022/05/21 08:18:44;;;;;;;6.50;4.80;;;;;;;22.44;73.35;100091.53;6222317;22;20004;-78
2022/05/21 08:21:10;;;;;;;7.93;4.70;;;;;;;22.58;73.90;100090.47;6274650;22;20435;-78
2022/05/21 08:29:04;;;;;;;6.80;4.68;;;;;;;23.42;68.46;100102.16;6274836;22;20016;-79
2022/05/21 08:31:30;;;;;;;5.88;4.38;;;;;;;23.72;68.15;100086.03;6274986;22;20043;-78
2022/05/21 08:33:56;;;;;;;8.65;4.15;;;;;;;24.22;65.88;100091.28;6274153;22;20027;-79
2022/05/21 08:36:21;;;;;;;6.90;3.85;;;;;;;24.88;63.69;100081.28;6274890;22;20073;-79
2022/05/21 08:38:47;;;;;;;7.22;4.10;;;;;;;25.47;59.38;100085.13;6248075;22;20333;-86
2022/05/21 08:41:17;;;;;;;9.82;4.45;;;;;;;26.03;58.59;100081.38;6275701;22;20336;-87
2022/05/21 08:43:54;;;;;;;6.07;3.85;;;;;;;26.30;55.25;100080.91;6274605;22;20019;-86
2022/05/21 08:46:40;;;;;;;7.32;3.90;;;;;;;26.53;53.89;100089.75;6275086;22;20019;-85
2022/05/21 08:49:12;;;;;;;6.75;3.15;;;;;;;26.64;52.03;100089.56;6274449;22;20035;-86
2022/05/21 08:51:43;;;;;;;10.65;3.80;;;;;;;26.57;50.59;100078.09;6247548;22;20012;-86
2022/05/21 08:54:11;;;;;;;12.18;4.60;;;;;;;26.21;49.86;100081.31;6221833;22;20020;-86
2022/05/21 08:56:37;;;;;;;6.10;4.22;;;;;;;26.16;50.64;100081.41;6247425;22;20011;-86
2022/05/21 08:59:05;;;;;;;8.00;4.60;;;;;;;26.51;50.96;100086.72;6272636;22;20018;-85
2022/05/21 09:01:33;;;;;;;9.13;4.13;;;;;;;26.61;48.53;100084.94;6273243;22;20015;-86
2022/05/21 09:04:03;;;;;;;5.97;3.92;;;;;;;26.43;48.80;100086.59;6246116;22;20036;-84
2022/05/21 09:06:34;;;;;;;8.93;4.00;;;;;;;26.26;48.92;100077.63;6246867;22;20007;-85
2022/05/21 09:09:15;;;;;;;5.97;3.90;;;;;;;25.96;50.30;100100.59;6272481;22;20015;-84
2022/05/21 09:11:43;;;;;;;5.82;3.78;;;;;;;25.71;50.46;100099.22;6273196;22;20016;-84
2022/05/21 09:14:34;;;;;;;4.55;3.45;;;;;;;25.59;51.18;100095.03;6245561;22;20034;-85
2022/05/21 09:17:00;;;;;;;4.38;3.40;;;;;;;25.65;51.46;100101.38;6273394;22;20012;-85
2022/05/21 09:19:34;;;;;;;7.13;3.75;;;;;;;25.62;50.72;100108.13;6246313;22;20018;-85
2022/05/21 09:22:02;;;;;;;6.78;3.83;;;;;;;25.54;52.00;100107.22;6274562;22;20111;-84
2022/05/21 09:24:42;;;;;;;5.63;3.47;;;;;;;25.59;51.98;100102.78;6274359;22;19999;-85
2022/05/21 09:27:31;;;;;;;5.63;3.25;;;;;;;25.64;52.84;100102.66;6274251;22;20016;-85
2022/05/21 09:30:23;;;;;;;5.50;3.50;;;;;;;25.76;53.81;100112.56;6253287;22;20098;-85
2022/05/21 09:32:52;;;;;;;5.78;3.50;;;;;;;25.83;52.43;100120.47;6246697;22;20043;-85
2022/05/21 09:35:42;;;;;;;5.32;3.58;;;;;;;25.78;51.15;100101.44;6245255;22;20007;-86
2022/05/21 09:38:19;;;;;;;6.45;3.60;;;;;;;25.81;55.07;100106.03;6241948;22;20016;-79
2022/05/21 09:40:44;;;;;;;5.18;3.72;;;;;;;25.94;52.96;100100.38;6247127;22;20008;-79
2022/05/21 09:45:54;;;;;;;7.07;3.67;;;;;;;26.52;53.20;100093.94;6273479;22;20020;-79
2022/05/21 09:48:24;;;;;;;6.45;3.80;;;;;;;26.75;52.59;100091.41;6245341;22;20481;-78
2022/05/21 09:50:57;;;;;;;6.45;4.40;;;;;;;27.18;53.22;100088.19;6273040;22;20023;-79
2022/05/21 09:53:39;;;;;;;7.53;3.88;;;;;;;27.35;49.91;100088.59;6220856;22;20014;-79
2022/05/21 09:56:22;;;;;;;7.23;4.00;;;;;;;27.63;49.55;100090.81;6273071;22;20035;-78
2022/05/21 09:58:50;;;;;;;7.53;4.05;;;;;;;28.14;48.52;100082.56;6273059;22;20015;-79
2022/05/21 10:01:33;;;;;;;6.10;4.13;;;;;;;28.14;47.20;100079.72;6272722;22;20066;-79
2022/05/21 10:03:59;;;;;;;7.53;4.60;;;;;;;28.09;47.85;100084.22;6272407;22;20022;-78
2022/05/21 10:06:28;;;;;;;6.38;3.63;;;;;;;28.01;46.67;100091.16;6245963;22;20108;-78
2022/05/21 10:12:05;;;;;;;5.60;4.10;;;;;;;27.85;46.67;100078.09;6272847;22;20504;-79
2022/05/21 10:14:44;;;;;;;5.45;4.00;;;;;;;28.55;47.26;100076.75;6272977;22;20019;-79
2022/05/21 10:17:28;;;;;;;7.18;4.43;;;;;;;28.97;45.37;100074.53;6245963;22;20441;-79
2022/05/21 10:20:34;;;;;;;5.32;3.92;;;;;;;29.05;45.67;100088.84;6245294;22;20012;-79
2022/05/21 10:23:39;;;;;;;6.28;3.80;;;;;;;27.98;47.01;100080.88;6253666;22;20012;-79
2022/05/21 10:26:23;;;;;;;6.10;4.10;;;;;;;27.69;48.00;100089.38;6245485;22;20011;-79
2022/05/21 10:29:04;;;;;;;5.38;3.97;;;;;;;27.27;48.92;100076.34;6272494;22;20015;-79
2022/05/21 10:31:57;;;;;;;5.50;3.65;;;;;;;27.54;48.57;100086.34;6247571;22;20035;-78
2022/05/21 10:34:38;;;;;;;6.63;3.65;;;;;;;27.87;47.41;100081.91;6274053;22;20069;-78
2022/05/21 10:37:29;;;;;;;6.50;3.60;;;;;;;28.05;47.83;100085.88;6272726;22;20040;-78
2022/05/21 10:39:54;;;;;;;4.85;3.75;;;;;;;28.09;47.30;100086.31;6272190;22;20146;-80
2022/05/21 10:42:21;;;;;;;6.32;3.65;;;;;;;28.02;48.06;100084.16;6272533;22;20077;-78
2022/05/21 10:45:09;;;;;;;6.30;3.72;;;;;;;27.76;47.96;100082.97;6272659;22;20015;-78
2022/05/21 10:47:46;;;;;;;5.30;3.90;;;;;;;27.78;48.46;100074.63;6246100;22;20016;-78
2022/05/21 10:50:33;;;;;;;4.47;3.85;;;;;;;28.34;47.70;100073.19;6219480;22;20020;-78
2022/05/21 10:53:26;;;;;;;5.25;3.88;;;;;;;28.52;46.41;100057.91;6272252;22;20065;-79
2022/05/21 10:56:01;;;;;;;5.97;3.95;;;;;;;28.73;46.09;100075.75;6272679;22;20011;-79
2022/05/21 10:58:42;;;;;;;6.22;4.20;;;;;;;28.78;45.30;100070.44;6220126;22;20022;-78
2022/05/21 11:01:17;;;;;;;6.57;4.25;;;;;;;29.03;45.19;100062.94;6272244;22;20484;-79
2022/05/21 11:04:20;;;;;;;5.70;3.65;;;;;;;28.98;45.26;100061.00;6272280;22;20012;-78
2022/05/21 11:07:08;;;;;;;6.25;3.80;;;;;;;28.86;46.27;100065.53;6273824;22;20007;-79
2022/05/21 11:09:50;;;;;;;7.35;5.05;;;;;;;28.75;47.63;100065.88;6273607;22;20051;-78
2022/05/21 11:12:26;;;;;;;6.43;4.55;;;;;;;28.75;47.35;100060.94;6273402;22;20579;-85
2022/05/21 11:15:06;;;;;;;6.10;5.28;;;;;;;28.84;46.82;100053.91;6273673;22;20007;-85
2022/05/21 11:17:31;;;;;;;5.63;4.90;;;;;;;28.88;46.75;100060.00;6268741;22;20051;-85
2022/05/21 11:20:20;;;;;;;6.63;5.50;;;;;;;28.87;46.73;100064.22;6269526;22;20050;-86
2022/05/21 11:23:06;;;;;;;6.95;5.13;;;;;;;28.87;45.98;100052.78;6243701;22;20012;-85
2022/05/21 11:25:37;;;;;;;6.47;5.72;;;;;;;29.04;46.19;100055.88;6244699;22;20063;-85
2022/05/21 11:28:22;;;;;;;6.55;5.20;;;;;;;28.96;45.93;100046.53;6218736;22;20145;-84
2022/05/21 11:30:47;;;;;;;6.13;5.30;;;;;;;29.15;45.78;100041.28;6270278;22;20048;-78
2022/05/21 11:37:20;;;;;;;6.32;5.30;;;;;;;29.12;45.11;100039.53;6248105;22;20011;-78
2022/05/21 11:39:06;;;;;;;7.63;6.03;;;;;;;29.57;44.43;100039.69;6271841;22;20150;-78
2022/05/21 11:42:03;;;;;;;6.57;5.38;;;;;;;29.64;43.54;100032.47;6246518;22;20016;-78
2022/05/21 11:44:58;;;;;;;6.15;5.43;;;;;;;29.33;43.39;100020.22;6273897;22;20040;-78
2022/05/21 11:47:33;;;;;;;5.70;5.20;;;;;;;29.33;43.89;100031.63;6272469;22;20100;-79
2022/05/21 11:50:02;;;;;;;6.28;5.68;;;;;;;29.02;43.91;100021.44;6246544;22;20438;-78
2022/05/21 11:52:27;;;;;;;6.53;5.45;;;;;;;29.20;43.09;100020.34;6273239;22;20019;-78
2022/05/21 11:55:11;;;;;;;6.13;5.40;;;;;;;29.50;42.76;100020.44;6272947;22;20065;-78
2022/05/21 11:58:04;;;;;;;6.40;5.20;;;;;;;29.63;42.52;100017.41;6273685;22;20098;-78
2022/05/21 12:00:32;;;;;;;5.70;5.00;;;;;;;29.65;42.83;100017.56;6268004;22;20050;-78
2022/05/21 12:02:58;;;;;;;5.60;5.03;;;;;;;29.80;43.07;100011.13;6271496;22;20012;-78